sensor_id;sensor_type;location;lat;lon;timestamp;pressure;altitude;pressure_sealevel;temperature;humidity
9774;BME280;4926;42.670;23.316;2023-01-13T00:00:52;94880.34;;;4.19;100.00
9774;BME280;4926;42.670;23.316;2023-01-13T00:03:19;94881.47;;;4.23;100.00
9774;BME280;4926;42.670;23.316;2023-01-13T00:05:46;94884.03;;;4.18;100.00
9774;BME280;4926;42.670;23.316;2023-01-13T00:08:12;94882.56;;;4.27;100.00
9774;BME280;4926;42.670;23.316;2023-01-13T00:10:39;94885.63;;;4.19;100.00
9774;BME280;4926;42.670;23.316;2023-01-13T00:13:09;94888.88;;;4.26;100.00
9774;BME280;4926;42.670;23.316;2023-01-13T00:15:36;94880.91;;;4.21;100.00
9774;BME280;4926;42.670;23.316;2023-01-13T00:18:04;94887.69;;;4.17;100.00
9774;BME280;4926;42.670;23.316;2023-01-13T00:20:30;94886.03;;;4.11;100.00
9774;BME280;4926;42.670;23.316;2023-01-13T00:22:57;94892.47;;;4.20;100.00
9774;BME280;4926;42.670;23.316;2023-01-13T00:25:24;94877.56;;;4.09;100.00
9774;BME280;4926;42.670;23.316;2023-01-13T00:27:51;94886.47;;;4.08;100.00
9774;BME280;4926;42.670;23.316;2023-01-13T00:30:18;94876.03;;;4.13;100.00
9774;BME280;4926;42.670;23.316;2023-01-13T00:32:44;94883.78;;;4.19;100.00
9774;BME280;4926;42.670;23.316;2023-01-13T00:35:15;94883.47;;;4.16;100.00
9774;BME280;4926;42.670;23.316;2023-01-13T00:37:43;94881.84;;;4.15;100.00
9774;BME280;4926;42.670;23.316;2023-01-13T00:40:14;94884.50;;;4.15;100.00
9774;BME280;4926;42.670;23.316;2023-01-13T00:42:40;94876.22;;;4.23;100.00
9774;BME280;4926;42.670;23.316;2023-01-13T00:45:24;94885.53;;;4.30;100.00
9774;BME280;4926;42.670;23.316;2023-01-13T00:47:51;94868.69;;;4.31;100.00
9774;BME280;4926;42.670;23.316;2023-01-13T00:50:19;94886.47;;;4.41;100.00
9774;BME280;4926;42.670;23.316;2023-01-13T00:52:46;94878.44;;;4.31;100.00
9774;BME280;4926;42.670;23.316;2023-01-13T00:55:17;94882.25;;;4.40;100.00
9774;BME280;4926;42.670;23.316;2023-01-13T00:57:49;94869.91;;;4.40;100.00
9774;BME280;4926;42.670;23.316;2023-01-13T01:00:19;94876.50;;;4.43;100.00
9774;BME280;4926;42.670;23.316;2023-01-13T01:02:46;94874.91;;;4.42;100.00
9774;BME280;4926;42.670;23.316;2023-01-13T01:05:13;94877.78;;;4.24;100.00
9774;BME280;4926;42.670;23.316;2023-01-13T01:07:41;94876.34;;;4.33;100.00
9774;BME280;4926;42.670;23.316;2023-01-13T01:10:11;94873.78;;;4.38;100.00
9774;BME280;4926;42.670;23.316;2023-01-13T01:12:37;94881.94;;;4.36;100.00
9774;BME280;4926;42.670;23.316;2023-01-13T01:15:05;94862.63;;;4.31;100.00
9774;BME280;4926;42.670;23.316;2023-01-13T01:17:34;94862.06;;;4.45;100.00
9774;BME280;4926;42.670;23.316;2023-01-13T01:20:01;94866.44;;;4.40;100.00
9774;BME280;4926;42.670;23.316;2023-01-13T01:22:28;94866.28;;;4.46;100.00
9774;BME280;4926;42.670;23.316;2023-01-13T01:24:56;94863.88;;;4.45;100.00
9774;BME280;4926;42.670;23.316;2023-01-13T01:27:24;94863.41;;;4.48;100.00
9774;BME280;4926;42.670;23.316;2023-01-13T01:29:53;94867.00;;;4.42;100.00
9774;BME280;4926;42.670;23.316;2023-01-13T01:32:19;94858.78;;;4.38;100.00
9774;BME280;4926;42.670;23.316;2023-01-13T01:34:51;94867.00;;;4.42;100.00
9774;BME280;4926;42.670;23.316;2023-01-13T01:37:22;94856.22;;;4.43;100.00
9774;BME280;4926;42.670;23.316;2023-01-13T01:39:49;94861.00;;;4.46;100.00
9774;BME280;4926;42.670;23.316;2023-01-13T01:42:18;94858.47;;;4.35;100.00
9774;BME280;4926;42.670;23.316;2023-01-13T01:45:11;94852.06;;;4.31;100.00
9774;BME280;4926;42.670;23.316;2023-01-13T01:47:39;94848.72;;;4.19;100.00
9774;BME280;4926;42.670;23.316;2023-01-13T01:50:08;94852.09;;;4.14;100.00
9774;BME280;4926;42.670;23.316;2023-01-13T01:52:40;94852.41;;;4.18;100.00
9774;BME280;4926;42.670;23.316;2023-01-13T01:55:15;94849.78;;;4.18;100.00
9774;BME280;4926;42.670;23.316;2023-01-13T01:57:50;94853.59;;;4.27;100.00
9774;BME280;4926;42.670;23.316;2023-01-13T02:00:19;94853.75;;;4.20;100.00
9774;BME280;4926;42.670;23.316;2023-01-13T02:02:48;94848.25;;;4.22;100.00
9774;BME280;4926;42.670;23.316;2023-01-13T02:05:16;94839.25;;;4.18;100.00
9774;BME280;4926;42.670;23.316;2023-01-13T02:07:44;94847.78;;;4.25;100.00
9774;BME280;4926;42.670;23.316;2023-01-13T02:10:16;94840.91;;;4.24;100.00
9774;BME280;4926;42.670;23.316;2023-01-13T02:12:47;94847.78;;;4.25;100.00
9774;BME280;4926;42.670;23.316;2023-01-13T02:15:16;94841.47;;;4.26;100.00
9774;BME280;4926;42.670;23.316;2023-01-13T02:21:00;94844.59;;;3.90;100.00
9774;BME280;4926;42.670;23.316;2023-01-13T02:23:57;94838.34;;;3.96;100.00
9774;BME280;4926;42.670;23.316;2023-01-13T02:30:01;94849.06;;;4.06;100.00
9774;BME280;4926;42.670;23.316;2023-01-13T02:32:57;94849.19;;;3.99;100.00
9774;BME280;4926;42.670;23.316;2023-01-13T02:35:27;94843.81;;;4.06;100.00
9774;BME280;4926;42.670;23.316;2023-01-13T02:37:58;94855.28;;;4.00;100.00
9774;BME280;4926;42.670;23.316;2023-01-13T02:40:31;94850.66;;;4.07;100.00
9774;BME280;4926;42.670;23.316;2023-01-13T02:43:03;94851.59;;;4.01;100.00
9774;BME280;4926;42.670;23.316;2023-01-13T02:45:52;94852.22;;;4.08;100.00
9774;BME280;4926;42.670;23.316;2023-01-13T02:48:22;94845.06;;;4.03;100.00
9774;BME280;4926;42.670;23.316;2023-01-13T02:50:53;94849.53;;;4.03;100.00
9774;BME280;4926;42.670;23.316;2023-01-13T02:53:25;94855.84;;;4.02;100.00
9774;BME280;4926;42.670;23.316;2023-01-13T02:55:55;94846.31;;;4.01;100.00
9774;BME280;4926;42.670;23.316;2023-01-13T02:58:26;94839.47;;;4.00;100.00
9774;BME280;4926;42.670;23.316;2023-01-13T03:00:56;94838.84;;;4.09;100.00
9774;BME280;4926;42.670;23.316;2023-01-13T03:03:23;94843.06;;;4.10;100.00
9774;BME280;4926;42.670;23.316;2023-01-13T03:05:53;94835.50;;;4.14;100.00
9774;BME280;4926;42.670;23.316;2023-01-13T03:08:32;94843.16;;;4.15;100.00
9774;BME280;4926;42.670;23.316;2023-01-13T03:11:08;94849.22;;;4.16;100.00
9774;BME280;4926;42.670;23.316;2023-01-13T03:13:50;94846.19;;;4.24;100.00
9774;BME280;4926;42.670;23.316;2023-01-13T03:16:27;94844.97;;;4.31;100.00
9774;BME280;4926;42.670;23.316;2023-01-13T03:19:11;94835.31;;;4.37;100.00
9774;BME280;4926;42.670;23.316;2023-01-13T03:21:50;94838.34;;;4.29;100.00
9774;BME280;4926;42.670;23.316;2023-01-13T03:24:24;94842.59;;;4.30;100.00
9774;BME280;4926;42.670;23.316;2023-01-13T03:26:55;94841.06;;;4.34;100.00
9774;BME280;4926;42.670;23.316;2023-01-13T03:29:26;94843.94;;;4.32;100.00
9774;BME280;4926;42.670;23.316;2023-01-13T03:32:02;94841.63;;;4.36;100.00
9774;BME280;4926;42.670;23.316;2023-01-13T03:34:33;94848.75;;;4.35;100.00
9774;BME280;4926;42.670;23.316;2023-01-13T03:37:06;94846.94;;;4.41;100.00
9774;BME280;4926;42.670;23.316;2023-01-13T03:39:36;94845.84;;;4.37;100.00
9774;BME280;4926;42.670;23.316;2023-01-13T03:42:07;94848.75;;;4.35;100.00
9774;BME280;4926;42.670;23.316;2023-01-13T03:44:41;94849.06;;;4.39;100.00
9774;BME280;4926;42.670;23.316;2023-01-13T03:47:21;94851.75;;;4.44;100.00
9774;BME280;4926;42.670;23.316;2023-01-13T03:49:54;94849.06;;;4.39;100.00
9774;BME280;4926;42.670;23.316;2023-01-13T03:52:25;94853.97;;;4.52;100.00
9774;BME280;4926;42.670;23.316;2023-01-13T03:54:56;94861.19;;;4.57;100.00
9774;BME280;4926;42.670;23.316;2023-01-13T03:57:30;94840.34;;;4.38;100.00
9774;BME280;4926;42.670;23.316;2023-01-13T04:00:00;94851.75;;;4.44;100.00
9774;BME280;4926;42.670;23.316;2023-01-13T04:02:37;94853.97;;;4.52;100.00
9774;BME280;4926;42.670;23.316;2023-01-13T04:05:08;94856.13;;;4.55;100.00
9774;BME280;4926;42.670;23.316;2023-01-13T04:07:58;94856.69;;;4.57;100.00
9774;BME280;4926;42.670;23.316;2023-01-13T04:10:30;94860.94;;;4.58;100.00
9774;BME280;4926;42.670;23.316;2023-01-13T04:13:01;94856.22;;;4.60;100.00
9774;BME280;4926;42.670;23.316;2023-01-13T04:15:32;94863.56;;;4.58;100.00
9774;BME280;4926;42.670;23.316;2023-01-13T04:18:16;94863.06;;;4.61;100.00
9774;BME280;4926;42.670;23.316;2023-01-13T04:20:47;94867.28;;;4.62;100.00
9774;BME280;4926;42.670;23.316;2023-01-13T04:23:18;94854.13;;;4.62;100.00
9774;BME280;4926;42.670;23.316;2023-01-13T04:25:50;94874.69;;;4.60;100.00
9774;BME280;4926;42.670;23.316;2023-01-13T04:28:20;94868.78;;;4.53;100.00
9774;BME280;4926;42.670;23.316;2023-01-13T04:30:47;94868.78;;;4.53;100.00
9774;BME280;4926;42.670;23.316;2023-01-13T04:33:16;94873.72;;;4.49;100.00
9774;BME280;4926;42.670;23.316;2023-01-13T04:35:44;94879.53;;;4.51;100.00
9774;BME280;4926;42.670;23.316;2023-01-13T04:38:13;94874.50;;;4.50;100.00
9774;BME280;4926;42.670;23.316;2023-01-13T04:40:41;94870.59;;;4.52;100.00
9774;BME280;4926;42.670;23.316;2023-01-13T04:43:08;94874.13;;;4.58;100.00
9774;BME280;4926;42.670;23.316;2023-01-13T04:45:40;94881.38;;;4.51;100.00
9774;BME280;4926;42.670;23.316;2023-01-13T04:48:07;94877.78;;;4.57;100.00
9774;BME280;4926;42.670;23.316;2023-01-13T04:50:38;94875.06;;;4.52;100.00
9774;BME280;4926;42.670;23.316;2023-01-13T04:53:07;94879.53;;;4.51;100.00
9774;BME280;4926;42.670;23.316;2023-01-13T04:55:33;94867.66;;;4.49;100.00
9774;BME280;4926;42.670;23.316;2023-01-13T04:58:03;94876.81;;;4.46;100.00
9774;BME280;4926;42.670;23.316;2023-01-13T05:00:30;94874.50;;;4.50;100.00
9774;BME280;4926;42.670;23.316;2023-01-13T05:03:00;94876.25;;;4.44;100.00
9774;BME280;4926;42.670;23.316;2023-01-13T05:05:28;94882.09;;;4.46;100.00
9774;BME280;4926;42.670;23.316;2023-01-13T05:07:58;94871.78;;;4.45;100.00
9774;BME280;4926;42.670;23.316;2023-01-13T05:10:26;94876.56;;;4.48;100.00
9774;BME280;4926;42.670;23.316;2023-01-13T05:12:55;94877.63;;;4.47;100.00
9774;BME280;4926;42.670;23.316;2023-01-13T05:15:45;94875.47;;;4.44;100.00
9774;BME280;4926;42.670;23.316;2023-01-13T05:18:29;94875.31;;;4.34;100.00
9774;BME280;4926;42.670;23.316;2023-01-13T05:20:56;94883.06;;;4.40;100.00
9774;BME280;4926;42.670;23.316;2023-01-13T05:23:25;94871.16;;;4.38;100.00
9774;BME280;4926;42.670;23.316;2023-01-13T05:26:09;94885.47;;;4.42;100.00
9774;BME280;4926;42.670;23.316;2023-01-13T05:28:45;94891.75;;;4.41;100.00
9774;BME280;4926;42.670;23.316;2023-01-13T05:31:14;94882.59;;;4.43;100.00
9774;BME280;4926;42.670;23.316;2023-01-13T05:33:41;94884.16;;;4.44;100.00
9774;BME280;4926;42.670;23.316;2023-01-13T05:36:08;94882.41;;;4.50;100.00
9774;BME280;4926;42.670;23.316;2023-01-13T05:38:36;94882.41;;;4.50;100.00
9774;BME280;4926;42.670;23.316;2023-01-13T05:41:06;94885.03;;;4.50;100.00
9774;BME280;4926;42.670;23.316;2023-01-13T05:43:50;94882.91;;;4.47;100.00
9774;BME280;4926;42.670;23.316;2023-01-13T05:46:19;94890.38;;;4.55;100.00
9774;BME280;4926;42.670;23.316;2023-01-13T05:48:46;94886.97;;;4.54;100.00
9774;BME280;4926;42.670;23.316;2023-01-13T05:51:13;94882.72;;;4.53;100.00
9774;BME280;4926;42.670;23.316;2023-01-13T05:53:41;94897.13;;;4.46;100.00
9774;BME280;4926;42.670;23.316;2023-01-13T05:56:08;94894.72;;;4.44;100.00
9774;BME280;4926;42.670;23.316;2023-01-13T05:58:42;94904.72;;;4.42;100.00
9774;BME280;4926;42.670;23.316;2023-01-13T06:01:11;94910.19;;;4.41;100.00
9774;BME280;4926;42.670;23.316;2023-01-13T06:03:38;94910.13;;;4.36;100.00
9774;BME280;4926;42.670;23.316;2023-01-13T06:06:10;94902.63;;;4.28;100.00
9774;BME280;4926;42.670;23.316;2023-01-13T06:08:37;94902.06;;;4.26;100.00
9774;BME280;4926;42.670;23.316;2023-01-13T06:11:05;94913.09;;;4.23;100.00
9774;BME280;4926;42.670;23.316;2023-01-13T06:13:31;94915.09;;;4.16;100.00
9774;BME280;4926;42.670;23.316;2023-01-13T06:15:58;94912.28;;;4.22;100.00
9774;BME280;4926;42.670;23.316;2023-01-13T06:18:26;94914.69;;;4.24;100.00
9774;BME280;4926;42.670;23.316;2023-01-13T06:21:02;94894.88;;;4.21;100.00
9774;BME280;4926;42.670;23.316;2023-01-13T06:23:29;94922.03;;;4.38;100.00
9774;BME280;4926;42.670;23.316;2023-01-13T06:26:03;94918.75;;;4.48;100.00
9774;BME280;4926;42.670;23.316;2023-01-13T06:28:35;94923.00;;;4.49;100.00
9774;BME280;4926;42.670;23.316;2023-01-13T06:31:05;94922.03;;;4.55;100.00
9774;BME280;4926;42.670;23.316;2023-01-13T06:33:36;94924.19;;;4.58;100.00
9774;BME280;4926;42.670;23.316;2023-01-13T06:36:08;94900.72;;;4.40;100.00
9774;BME280;4926;42.670;23.316;2023-01-13T06:38:40;94923.63;;;4.56;100.00
9774;BME280;4926;42.670;23.316;2023-01-13T06:41:09;94929.16;;;4.54;100.00
9774;BME280;4926;42.670;23.316;2023-01-13T06:43:38;94933.22;;;4.62;100.00
9774;BME280;4926;42.670;23.316;2023-01-13T06:46:04;94929.56;;;4.63;100.00
9774;BME280;4926;42.670;23.316;2023-01-13T06:48:32;94914.28;;;4.65;100.00
9774;BME280;4926;42.670;23.316;2023-01-13T06:50:59;94918.03;;;4.69;100.00
9774;BME280;4926;42.670;23.316;2023-01-13T06:53:26;94923.22;;;4.64;100.00
9774;BME280;4926;42.670;23.316;2023-01-13T06:55:58;94917.69;;;4.66;100.00
9774;BME280;4926;42.670;23.316;2023-01-13T06:58:24;94914.81;;;4.67;100.00
9774;BME280;4926;42.670;23.316;2023-01-13T07:00:52;94922.97;;;4.66;100.00
9774;BME280;4926;42.670;23.316;2023-01-13T07:03:19;94917.06;;;4.75;100.00
9774;BME280;4926;42.670;23.316;2023-01-13T07:05:52;94918.72;;;4.81;100.00
9774;BME280;4926;42.670;23.316;2023-01-13T07:08:24;94915.00;;;4.77;100.00
9774;BME280;4926;42.670;23.316;2023-01-13T07:10:51;94916.56;;;4.78;100.00
9774;BME280;4926;42.670;23.316;2023-01-13T07:13:18;94918.50;;;4.83;100.00
9774;BME280;4926;42.670;23.316;2023-01-13T07:16:05;94913.38;;;4.76;100.00
9774;BME280;4926;42.670;23.316;2023-01-13T07:18:33;94917.22;;;4.85;100.00
9774;BME280;4926;42.670;23.316;2023-01-13T07:21:01;94922.00;;;4.88;100.00
9774;BME280;4926;42.670;23.316;2023-01-13T07:23:35;94919.84;;;4.85;100.00
9774;BME280;4926;42.670;23.316;2023-01-13T07:26:02;94914.09;;;4.88;100.00
9774;BME280;4926;42.670;23.316;2023-01-13T07:28:29;94913.69;;;4.96;100.00
9774;BME280;4926;42.670;23.316;2023-01-13T07:30:57;94915.50;;;5.12;100.00
9774;BME280;4926;42.670;23.316;2023-01-13T07:33:25;94913.25;;;5.04;100.00
9774;BME280;4926;42.670;23.316;2023-01-13T07:35:55;94913.94;;;5.16;100.00
9774;BME280;4926;42.670;23.316;2023-01-13T07:38:22;94914.09;;;5.26;100.00
9774;BME280;4926;42.670;23.316;2023-01-13T07:40:52;94909.03;;;5.25;100.00
9774;BME280;4926;42.670;23.316;2023-01-13T07:43:20;94916.78;;;5.31;100.00
9774;BME280;4926;42.670;23.316;2023-01-13T07:45:58;94920.59;;;5.40;100.00
9774;BME280;4926;42.670;23.316;2023-01-13T07:48:32;94915.69;;;5.49;100.00
9774;BME280;4926;42.670;23.316;2023-01-13T07:51:00;94915.38;;;5.45;100.00
9774;BME280;4926;42.670;23.316;2023-01-13T07:53:29;94906.91;;;5.43;100.00
9774;BME280;4926;42.670;23.316;2023-01-13T07:55:57;94922.56;;;5.50;100.00
9774;BME280;4926;42.670;23.316;2023-01-13T07:58:24;94923.91;;;5.52;100.00
9774;BME280;4926;42.670;23.316;2023-01-13T08:00:52;94925.59;;;5.63;100.00
9774;BME280;4926;42.670;23.316;2023-01-13T08:03:19;94922.00;;;5.69;100.00
9774;BME280;4926;42.670;23.316;2023-01-13T08:05:47;94925.75;;;5.74;100.00
9774;BME280;4926;42.670;23.316;2023-01-13T08:08:14;94931.16;;;5.84;100.00
9774;BME280;4926;42.670;23.316;2023-01-13T08:10:41;94937.06;;;5.91;100.00
9774;BME280;4926;42.670;23.316;2023-01-13T08:13:10;94934.75;;;5.99;100.00
9774;BME280;4926;42.670;23.316;2023-01-13T08:15:49;94939.66;;;5.86;100.00
9774;BME280;4926;42.670;23.316;2023-01-13T08:18:17;94936.13;;;5.80;100.00
9774;BME280;4926;42.670;23.316;2023-01-13T08:20:48;94936.84;;;5.76;100.00
9774;BME280;4926;42.670;23.316;2023-01-13T08:23:16;94942.13;;;5.76;100.00
9774;BME280;4926;42.670;23.316;2023-01-13T08:25:44;94936.03;;;5.97;100.00
9774;BME280;4926;42.670;23.316;2023-01-13T08:28:11;94923.81;;;6.12;100.00
9774;BME280;4926;42.670;23.316;2023-01-13T08:30:40;94935.38;;;6.33;100.00
9774;BME280;4926;42.670;23.316;2023-01-13T08:33:08;94935.53;;;6.53;100.00
9774;BME280;4926;42.670;23.316;2023-01-13T08:35:36;94926.13;;;6.67;100.00
9774;BME280;4926;42.670;23.316;2023-01-13T08:38:04;94924.91;;;6.79;98.36
9774;BME280;4926;42.670;23.316;2023-01-13T08:40:34;94918.94;;;6.62;98.01
9774;BME280;4926;42.670;23.316;2023-01-13T08:43:01;94922.22;;;6.74;98.96
9774;BME280;4926;42.670;23.316;2023-01-13T08:45:28;94919.94;;;6.93;96.79
9774;BME280;4926;42.670;23.316;2023-01-13T08:47:54;94920.25;;;6.97;95.89
9774;BME280;4926;42.670;23.316;2023-01-13T08:50:21;94930.19;;;7.21;95.12
9774;BME280;4926;42.670;23.316;2023-01-13T08:52:48;94927.59;;;7.31;91.94
9774;BME280;4926;42.670;23.316;2023-01-13T08:55:16;94923.41;;;7.40;91.36
9774;BME280;4926;42.670;23.316;2023-01-13T08:57:43;94931.56;;;7.29;90.87
9774;BME280;4926;42.670;23.316;2023-01-13T09:00:10;94929.28;;;7.52;89.97
9774;BME280;4926;42.670;23.316;2023-01-13T09:02:40;94929.09;;;7.69;89.29
9774;BME280;4926;42.670;23.316;2023-01-13T09:05:08;94923.56;;;7.85;87.87
9774;BME280;4926;42.670;23.316;2023-01-13T09:07:36;94922.81;;;7.90;86.82
9774;BME280;4926;42.670;23.316;2023-01-13T09:10:05;94918.31;;;7.90;86.45
9774;BME280;4926;42.670;23.316;2023-01-13T09:12:34;94918.81;;;7.92;86.17
9774;BME280;4926;42.670;23.316;2023-01-13T09:15:18;94926.50;;;7.89;85.43
9774;BME280;4926;42.670;23.316;2023-01-13T09:17:46;94927.31;;;7.94;85.37
9774;BME280;4926;42.670;23.316;2023-01-13T09:20:13;94921.00;;;8.11;85.25
9774;BME280;4926;42.670;23.316;2023-01-13T09:22:39;94926.31;;;8.21;83.98
9774;BME280;4926;42.670;23.316;2023-01-13T09:25:07;94917.81;;;8.09;82.50
9774;BME280;4926;42.670;23.316;2023-01-13T09:27:35;94923.84;;;7.89;82.89
9774;BME280;4926;42.670;23.316;2023-01-13T09:30:02;94924.59;;;7.69;84.84
9774;BME280;4926;42.670;23.316;2023-01-13T09:32:31;94922.34;;;7.41;85.99
9774;BME280;4926;42.670;23.316;2023-01-13T09:34:58;94914.50;;;7.61;86.07
9774;BME280;4926;42.670;23.316;2023-01-13T09:37:30;94917.72;;;7.78;84.74
9774;BME280;4926;42.670;23.316;2023-01-13T09:40:00;94910.31;;;7.85;84.43
9774;BME280;4926;42.670;23.316;2023-01-13T09:42:37;94915.66;;;7.90;83.64
9774;BME280;4926;42.670;23.316;2023-01-13T09:45:28;94914.63;;;8.07;83.31
9774;BME280;4926;42.670;23.316;2023-01-13T09:48:01;94916.25;;;8.18;82.85
9774;BME280;4926;42.670;23.316;2023-01-13T09:53:19;94910.41;;;8.11;82.45
9774;BME280;4926;42.670;23.316;2023-01-13T09:55:47;94911.75;;;8.13;82.05
9774;BME280;4926;42.670;23.316;2023-01-13T09:58:16;94899.53;;;8.12;82.04
9774;BME280;4926;42.670;23.316;2023-01-13T10:00:46;94905.63;;;8.23;81.80
9774;BME280;4926;42.670;23.316;2023-01-13T10:03:19;94905.16;;;8.31;80.92
9774;BME280;4926;42.670;23.316;2023-01-13T10:05:54;94889.72;;;8.08;80.79
9774;BME280;4926;42.670;23.316;2023-01-13T10:08:23;94886.00;;;8.09;81.22
9774;BME280;4926;42.670;23.316;2023-01-13T10:10:54;94893.19;;;8.13;80.74
9774;BME280;4926;42.670;23.316;2023-01-13T10:13:27;94888.16;;;8.17;80.56
9774;BME280;4926;42.670;23.316;2023-01-13T10:16:01;94905.06;;;7.90;80.61
9774;BME280;4926;42.670;23.316;2023-01-13T10:18:38;94908.94;;;7.63;81.61
9774;BME280;4926;42.670;23.316;2023-01-13T10:21:24;94896.47;;;7.58;81.90
9774;BME280;4926;42.670;23.316;2023-01-13T10:24:06;94892.47;;;7.56;81.97
9774;BME280;4926;42.670;23.316;2023-01-13T10:26:47;94898.03;;;7.49;82.06
9774;BME280;4926;42.670;23.316;2023-01-13T10:29:28;94896.88;;;7.30;82.79
9774;BME280;4926;42.670;23.316;2023-01-13T10:31:56;94889.44;;;7.22;83.63
9774;BME280;4926;42.670;23.316;2023-01-13T10:34:24;94891.81;;;7.19;84.81
9774;BME280;4926;42.670;23.316;2023-01-13T10:36:56;94880.47;;;7.33;84.55
9774;BME280;4926;42.670;23.316;2023-01-13T10:39:42;94878.91;;;7.42;84.43
9774;BME280;4926;42.670;23.316;2023-01-13T10:42:12;94878.38;;;7.45;84.50
9774;BME280;4926;42.670;23.316;2023-01-13T10:44:52;94875.28;;;7.58;83.96
9774;BME280;4926;42.670;23.316;2023-01-13T10:47:22;94875.81;;;7.55;83.79
9774;BME280;4926;42.670;23.316;2023-01-13T10:50:02;94876.09;;;7.59;83.63
9774;BME280;4926;42.670;23.316;2023-01-13T10:52:33;94866.31;;;7.69;83.33
9774;BME280;4926;42.670;23.316;2023-01-13T10:55:11;94865.25;;;7.75;82.16
9774;BME280;4926;42.670;23.316;2023-01-13T10:57:49;94866.31;;;7.69;82.57
9774;BME280;4926;42.670;23.316;2023-01-13T11:00:28;94870.28;;;7.82;82.63
9774;BME280;4926;42.670;23.316;2023-01-13T11:03:23;94868.97;;;7.74;82.46
9774;BME280;4926;42.670;23.316;2023-01-13T11:05:54;94867.91;;;7.75;82.85
9774;BME280;4926;42.670;23.316;2023-01-13T11:08:22;94861.28;;;7.68;83.33
9774;BME280;4926;42.670;23.316;2023-01-13T11:10:52;94865.81;;;7.82;83.15
9774;BME280;4926;42.670;23.316;2023-01-13T11:13:26;94859.47;;;7.83;82.96
9774;BME280;4926;42.670;23.316;2023-01-13T11:16:00;94853.09;;;7.79;83.13
9774;BME280;4926;42.670;23.316;2023-01-13T11:18:38;94855.47;;;7.76;82.75
9774;BME280;4926;42.670;23.316;2023-01-13T11:21:20;94845.66;;;7.76;82.05
9774;BME280;4926;42.670;23.316;2023-01-13T11:23:54;94847.69;;;7.44;83.10
9774;BME280;4926;42.670;23.316;2023-01-13T11:26:37;94858.25;;;7.34;84.06
9774;BME280;4926;42.670;23.316;2023-01-13T11:29:10;94846.59;;;7.40;84.09
9774;BME280;4926;42.670;23.316;2023-01-13T11:31:44;94838.13;;;7.38;84.51
9774;BME280;4926;42.670;23.316;2023-01-13T11:34:22;94853.53;;;7.51;84.38
9774;BME280;4926;42.670;23.316;2023-01-13T11:36:53;94848.22;;;7.51;85.14
9774;BME280;4926;42.670;23.316;2023-01-13T11:39:25;94849.31;;;7.55;84.70
9774;BME280;4926;42.670;23.316;2023-01-13T11:41:58;94845.84;;;7.55;84.07
9774;BME280;4926;42.670;23.316;2023-01-13T11:44:50;94840.81;;;7.53;84.33
9774;BME280;4926;42.670;23.316;2023-01-13T11:47:24;94838.44;;;7.52;84.90
9774;BME280;4926;42.670;23.316;2023-01-13T11:49:52;94841.00;;;7.32;85.79
9774;BME280;4926;42.670;23.316;2023-01-13T11:52:31;94844.72;;;7.31;86.47
9774;BME280;4926;42.670;23.316;2023-01-13T11:55:15;94837.00;;;7.24;86.63
9774;BME280;4926;42.670;23.316;2023-01-13T11:58:00;94833.88;;;7.32;86.58
9774;BME280;4926;42.670;23.316;2023-01-13T12:00:54;94830.97;;;7.34;87.23
9774;BME280;4926;42.670;23.316;2023-01-13T12:03:32;94830.16;;;7.38;86.78
9774;BME280;4926;42.670;23.316;2023-01-13T12:06:10;94826.75;;;7.38;86.83
9774;BME280;4926;42.670;23.316;2023-01-13T12:08:49;94818.00;;;7.42;87.14
9774;BME280;4926;42.670;23.316;2023-01-13T12:11:24;94819.63;;;7.53;86.69
9774;BME280;4926;42.670;23.316;2023-01-13T12:14:04;94820.69;;;7.52;86.89
9774;BME280;4926;42.670;23.316;2023-01-13T12:16:41;94827.59;;;7.53;87.64
9774;BME280;4926;42.670;23.316;2023-01-13T12:19:22;94823.38;;;7.57;87.90
9774;BME280;4926;42.670;23.316;2023-01-13T12:22:02;94825.19;;;7.52;87.93
9774;BME280;4926;42.670;23.316;2023-01-13T12:24:35;94818.56;;;7.54;87.74
9774;BME280;4926;42.670;23.316;2023-01-13T12:27:08;94821.25;;;7.64;87.53
9774;BME280;4926;42.670;23.316;2023-01-13T12:29:40;94825.22;;;7.57;87.43
9774;BME280;4926;42.670;23.316;2023-01-13T12:32:12;94815.16;;;7.69;87.68
9774;BME280;4926;42.670;23.316;2023-01-13T12:34:50;94814.91;;;7.80;87.86
9774;BME280;4926;42.670;23.316;2023-01-13T12:37:25;94826.06;;;7.92;85.71
9774;BME280;4926;42.670;23.316;2023-01-13T12:40:14;94816.75;;;7.75;85.98
9774;BME280;4926;42.670;23.316;2023-01-13T12:42:49;94829.78;;;7.86;85.84
9774;BME280;4926;42.670;23.316;2023-01-13T12:45:37;94829.25;;;7.94;85.28
9774;BME280;4926;42.670;23.316;2023-01-13T12:48:04;94827.66;;;7.93;84.61
9774;BME280;4926;42.670;23.316;2023-01-13T12:50:42;94814.16;;;8.00;85.05
9774;BME280;4926;42.670;23.316;2023-01-13T12:53:30;94825.28;;;8.12;83.89
9774;BME280;4926;42.670;23.316;2023-01-13T12:56:38;94818.13;;;8.03;83.06
9774;BME280;4926;42.670;23.316;2023-01-13T12:59:31;94826.91;;;8.08;82.81
9774;BME280;4926;42.670;23.316;2023-01-13T13:02:27;94828.75;;;8.03;82.90
9774;BME280;4926;42.670;23.316;2023-01-13T13:04:55;94831.13;;;7.99;83.23
9774;BME280;4926;42.670;23.316;2023-01-13T13:07:34;94825.81;;;8.04;83.07
9774;BME280;4926;42.670;23.316;2023-01-13T13:10:15;94821.28;;;7.94;82.26
9774;BME280;4926;42.670;23.316;2023-01-13T13:12:54;94831.91;;;7.94;82.54
9774;BME280;4926;42.670;23.316;2023-01-13T13:15:38;94837.19;;;7.89;82.60
9774;BME280;4926;42.670;23.316;2023-01-13T13:18:21;94840.91;;;7.93;82.23
9774;BME280;4926;42.670;23.316;2023-01-13T13:21:00;94839.84;;;7.89;82.40
9774;BME280;4926;42.670;23.316;2023-01-13T13:26:34;94851.44;;;7.53;83.88
9774;BME280;4926;42.670;23.316;2023-01-13T13:29:28;94844.56;;;7.67;83.99
9774;BME280;4926;42.670;23.316;2023-01-13T13:34:57;94835.34;;;7.80;84.14
9774;BME280;4926;42.670;23.316;2023-01-13T13:37:36;94843.00;;;7.71;84.00
9774;BME280;4926;42.670;23.316;2023-01-13T13:40:22;94843.00;;;7.71;83.84
9774;BME280;4926;42.670;23.316;2023-01-13T13:43:10;94848.81;;;7.68;84.10
9774;BME280;4926;42.670;23.316;2023-01-13T13:45:56;94845.66;;;7.76;83.77
9774;BME280;4926;42.670;23.316;2023-01-13T13:48:49;94845.13;;;7.79;83.80
9774;BME280;4926;42.670;23.316;2023-01-13T13:51:26;94845.69;;;7.86;83.35
9774;BME280;4926;42.670;23.316;2023-01-13T13:53:54;94832.41;;;7.76;83.33
9774;BME280;4926;42.670;23.316;2023-01-13T13:56:28;94845.69;;;7.86;83.06
9774;BME280;4926;42.670;23.316;2023-01-13T13:58:57;94852.00;;;7.80;83.36